Hovedside
METAR-TAF:

METAR-TAF

Lufthavner :

Andøya, Norge

Andøya lufthavn

breddegrad: 69-18N, lengdegrad: 016-09E, høyde over havet: 1 m

Gjeldene værobservasjon

Denne rapporten ble laget for 39 minutter siden, klokken 21:20 UTC
Vind 4 kt fra Sør-sørvest
Temperatur 13°C
Luftfuktighet 88%
Trykk 1007 hPa
Sikt 10 km eller mer

METAR: ENAN 182120Z AUTO 20004KT 9999 BKN053/// OVC072/// 13/11 Q1007

Tid: 23:59 (21:59 UTC)

Varsel

Varsel gyldig fra 18. klokken 18 UTC til 19. klokken 18 UTC
Vind 8 kt fra Sør
Sikt 10 km eller mer
Få skyer i en høyde av 2000 ft
Brutte skyer i en høyde av 6000 ft
Blir
fra 19. klokken 14 UTC til 19. klokken 16 UTC
Vind 15 kt fra Nordøst

TAF: ENAN 1818/1918 18008KT 9999 FEW020 BKN060 BECMG 1914/1916 05015KT

Værobservasjoner og værvarsel for over 4000 flyplasser (METAR- og TAF-rapporter).

Tilgjengelige stasjoner er representert av de røde og gule prikkene på kartet.

Hold musepekeren over prikken for å se navnet på stasjonen.

Klikk så for å se værobservasjoner og -varsler.

For å forandre kartet kan du klikke på den grønne knappen med svart kryss for å zoome inn, på den grønne knappen med strek for å zoome ut, eller på de grønne pilene for å se tilstøtende kart.


METAR-TAF: